sensor_id;sensor_type;location;lat;lon;timestamp;temperature;humidity
25440;DHT22;13365;52.208;5.488;2023-04-24T00:00:54;13.70;99.90
25440;DHT22;13365;52.208;5.488;2023-04-24T00:03:24;13.60;99.90
25440;DHT22;13365;52.208;5.488;2023-04-24T00:05:50;13.50;99.90
25440;DHT22;13365;52.208;5.488;2023-04-24T00:08:16;13.60;99.90
25440;DHT22;13365;52.208;5.488;2023-04-24T00:10:42;13.60;99.90
25440;DHT22;13365;52.208;5.488;2023-04-24T00:13:08;13.50;99.90
25440;DHT22;13365;52.208;5.488;2023-04-24T00:15:33;13.60;99.90
25440;DHT22;13365;52.208;5.488;2023-04-24T00:17:59;13.50;99.90
25440;DHT22;13365;52.208;5.488;2023-04-24T00:20:26;13.40;99.90
25440;DHT22;13365;52.208;5.488;2023-04-24T00:22:53;13.50;99.90
25440;DHT22;13365;52.208;5.488;2023-04-24T00:25:19;13.60;99.90
25440;DHT22;13365;52.208;5.488;2023-04-24T00:27:44;13.70;99.90
25440;DHT22;13365;52.208;5.488;2023-04-24T00:30:10;13.50;99.90
25440;DHT22;13365;52.208;5.488;2023-04-24T00:32:35;13.50;99.90
25440;DHT22;13365;52.208;5.488;2023-04-24T00:35:01;13.50;99.90
25440;DHT22;13365;52.208;5.488;2023-04-24T00:37:27;13.50;99.90
25440;DHT22;13365;52.208;5.488;2023-04-24T00:39:52;13.50;99.90
25440;DHT22;13365;52.208;5.488;2023-04-24T00:42:18;13.60;99.90
25440;DHT22;13365;52.208;5.488;2023-04-24T00:44:43;13.60;99.90
25440;DHT22;13365;52.208;5.488;2023-04-24T00:47:09;13.60;99.90
25440;DHT22;13365;52.208;5.488;2023-04-24T00:49:36;13.50;99.90
25440;DHT22;13365;52.208;5.488;2023-04-24T00:52:02;13.30;99.90
25440;DHT22;13365;52.208;5.488;2023-04-24T00:54:27;13.50;99.90
25440;DHT22;13365;52.208;5.488;2023-04-24T00:56:53;13.40;99.90
25440;DHT22;13365;52.208;5.488;2023-04-24T00:59:18;13.10;99.90
25440;DHT22;13365;52.208;5.488;2023-04-24T01:01:44;13.10;99.90
25440;DHT22;13365;52.208;5.488;2023-04-24T01:04:11;13.30;99.90
25440;DHT22;13365;52.208;5.488;2023-04-24T01:06:39;13.40;99.90
25440;DHT22;13365;52.208;5.488;2023-04-24T01:09:05;13.40;99.90
25440;DHT22;13365;52.208;5.488;2023-04-24T01:11:33;13.50;99.90
25440;DHT22;13365;52.208;5.488;2023-04-24T01:13:59;13.50;99.90
25440;DHT22;13365;52.208;5.488;2023-04-24T01:16:25;13.40;99.90
25440;DHT22;13365;52.208;5.488;2023-04-24T01:18:51;13.20;99.90
25440;DHT22;13365;52.208;5.488;2023-04-24T01:21:18;13.30;99.90
25440;DHT22;13365;52.208;5.488;2023-04-24T01:23:44;13.40;99.90
25440;DHT22;13365;52.208;5.488;2023-04-24T01:26:10;13.40;99.90
25440;DHT22;13365;52.208;5.488;2023-04-24T01:28:36;13.40;99.90
25440;DHT22;13365;52.208;5.488;2023-04-24T01:31:02;13.40;99.90
25440;DHT22;13365;52.208;5.488;2023-04-24T01:33:27;13.70;99.90
25440;DHT22;13365;52.208;5.488;2023-04-24T01:35:54;13.70;99.90
25440;DHT22;13365;52.208;5.488;2023-04-24T01:38:19;13.80;99.90
25440;DHT22;13365;52.208;5.488;2023-04-24T01:40:45;13.70;99.90
25440;DHT22;13365;52.208;5.488;2023-04-24T01:43:11;13.80;99.90
25440;DHT22;13365;52.208;5.488;2023-04-24T01:45:37;14.00;99.90
25440;DHT22;13365;52.208;5.488;2023-04-24T01:48:03;14.00;99.90
25440;DHT22;13365;52.208;5.488;2023-04-24T01:50:28;14.00;99.90
25440;DHT22;13365;52.208;5.488;2023-04-24T01:52:54;14.10;99.90
25440;DHT22;13365;52.208;5.488;2023-04-24T01:55:19;14.30;99.90
25440;DHT22;13365;52.208;5.488;2023-04-24T01:57:45;14.40;99.90
25440;DHT22;13365;52.208;5.488;2023-04-24T02:00:11;14.40;99.90
25440;DHT22;13365;52.208;5.488;2023-04-24T02:02:38;14.50;99.90
25440;DHT22;13365;52.208;5.488;2023-04-24T02:05:06;14.40;99.90
25440;DHT22;13365;52.208;5.488;2023-04-24T02:07:32;14.40;99.90
25440;DHT22;13365;52.208;5.488;2023-04-24T02:09:58;14.40;99.90
25440;DHT22;13365;52.208;5.488;2023-04-24T02:12:23;14.40;99.90
25440;DHT22;13365;52.208;5.488;2023-04-24T02:14:49;14.40;99.90
25440;DHT22;13365;52.208;5.488;2023-04-24T02:17:15;14.40;99.90
25440;DHT22;13365;52.208;5.488;2023-04-24T02:19:41;14.40;99.90
25440;DHT22;13365;52.208;5.488;2023-04-24T02:22:07;14.40;99.90
25440;DHT22;13365;52.208;5.488;2023-04-24T02:24:32;14.50;99.90
25440;DHT22;13365;52.208;5.488;2023-04-24T02:26:58;14.40;99.90
25440;DHT22;13365;52.208;5.488;2023-04-24T02:29:23;14.20;99.90
25440;DHT22;13365;52.208;5.488;2023-04-24T02:31:49;14.30;99.90
25440;DHT22;13365;52.208;5.488;2023-04-24T02:34:15;14.20;99.90
25440;DHT22;13365;52.208;5.488;2023-04-24T02:36:41;13.90;99.90
25440;DHT22;13365;52.208;5.488;2023-04-24T02:39:07;13.90;99.90
25440;DHT22;13365;52.208;5.488;2023-04-24T02:41:32;14.00;99.90
25440;DHT22;13365;52.208;5.488;2023-04-24T02:43:58;14.10;99.90
25440;DHT22;13365;52.208;5.488;2023-04-24T02:46:24;14.20;99.90
25440;DHT22;13365;52.208;5.488;2023-04-24T02:48:50;14.30;99.90
25440;DHT22;13365;52.208;5.488;2023-04-24T02:51:15;14.20;99.90
25440;DHT22;13365;52.208;5.488;2023-04-24T02:53:41;14.00;99.90
25440;DHT22;13365;52.208;5.488;2023-04-24T02:56:06;14.20;99.90
25440;DHT22;13365;52.208;5.488;2023-04-24T02:58:32;14.10;99.90
25440;DHT22;13365;52.208;5.488;2023-04-24T03:00:57;14.00;99.90
25440;DHT22;13365;52.208;5.488;2023-04-24T03:03:23;13.60;99.90
25440;DHT22;13365;52.208;5.488;2023-04-24T03:05:49;13.40;99.90
25440;DHT22;13365;52.208;5.488;2023-04-24T03:08:14;13.40;99.90
25440;DHT22;13365;52.208;5.488;2023-04-24T03:10:40;13.40;99.90
25440;DHT22;13365;52.208;5.488;2023-04-24T03:13:06;13.60;99.90
25440;DHT22;13365;52.208;5.488;2023-04-24T03:15:31;13.50;99.90
25440;DHT22;13365;52.208;5.488;2023-04-24T03:17:57;13.40;99.90
25440;DHT22;13365;52.208;5.488;2023-04-24T03:20:22;13.10;99.90
25440;DHT22;13365;52.208;5.488;2023-04-24T03:22:48;13.20;99.90
25440;DHT22;13365;52.208;5.488;2023-04-24T03:25:13;13.20;99.90
25440;DHT22;13365;52.208;5.488;2023-04-24T03:27:39;13.20;99.90
25440;DHT22;13365;52.208;5.488;2023-04-24T03:30:06;13.20;99.90
25440;DHT22;13365;52.208;5.488;2023-04-24T03:32:32;13.00;99.90
25440;DHT22;13365;52.208;5.488;2023-04-24T03:34:57;13.20;99.90
25440;DHT22;13365;52.208;5.488;2023-04-24T03:37:23;13.20;99.90
25440;DHT22;13365;52.208;5.488;2023-04-24T03:39:48;13.30;99.90
25440;DHT22;13365;52.208;5.488;2023-04-24T03:42:14;13.30;99.90
25440;DHT22;13365;52.208;5.488;2023-04-24T03:44:40;13.20;99.90
25440;DHT22;13365;52.208;5.488;2023-04-24T03:47:05;13.40;99.90
25440;DHT22;13365;52.208;5.488;2023-04-24T03:49:31;13.60;99.90
25440;DHT22;13365;52.208;5.488;2023-04-24T03:51:57;13.60;99.90
25440;DHT22;13365;52.208;5.488;2023-04-24T03:54:22;13.70;99.90
25440;DHT22;13365;52.208;5.488;2023-04-24T03:56:48;13.90;99.90
25440;DHT22;13365;52.208;5.488;2023-04-24T03:59:13;14.10;99.90
25440;DHT22;13365;52.208;5.488;2023-04-24T04:01:39;14.00;99.90
25440;DHT22;13365;52.208;5.488;2023-04-24T04:04:08;14.20;99.90
25440;DHT22;13365;52.208;5.488;2023-04-24T04:06:33;14.10;99.90
25440;DHT22;13365;52.208;5.488;2023-04-24T04:08:59;14.30;99.90
25440;DHT22;13365;52.208;5.488;2023-04-24T04:11:25;14.10;99.90
25440;DHT22;13365;52.208;5.488;2023-04-24T04:13:52;13.80;99.90
25440;DHT22;13365;52.208;5.488;2023-04-24T04:16:17;13.50;99.90
25440;DHT22;13365;52.208;5.488;2023-04-24T04:18:44;13.60;99.90
25440;DHT22;13365;52.208;5.488;2023-04-24T04:21:10;13.80;99.90
25440;DHT22;13365;52.208;5.488;2023-04-24T04:23:35;14.00;99.90
25440;DHT22;13365;52.208;5.488;2023-04-24T04:26:01;14.40;99.90
25440;DHT22;13365;52.208;5.488;2023-04-24T04:28:27;14.50;99.90
25440;DHT22;13365;52.208;5.488;2023-04-24T04:30:53;14.70;99.90
25440;DHT22;13365;52.208;5.488;2023-04-24T04:33:26;14.80;99.90
25440;DHT22;13365;52.208;5.488;2023-04-24T04:35:52;14.90;99.90
25440;DHT22;13365;52.208;5.488;2023-04-24T04:38:20;14.90;99.90
25440;DHT22;13365;52.208;5.488;2023-04-24T04:40:46;15.20;99.90
25440;DHT22;13365;52.208;5.488;2023-04-24T04:43:12;15.10;99.90
25440;DHT22;13365;52.208;5.488;2023-04-24T04:45:41;15.20;99.90
25440;DHT22;13365;52.208;5.488;2023-04-24T04:48:08;15.20;99.90
25440;DHT22;13365;52.208;5.488;2023-04-24T04:50:34;15.10;99.90
25440;DHT22;13365;52.208;5.488;2023-04-24T04:53:00;15.00;99.90
25440;DHT22;13365;52.208;5.488;2023-04-24T04:55:26;15.10;99.90
25440;DHT22;13365;52.208;5.488;2023-04-24T04:57:52;15.00;99.90
25440;DHT22;13365;52.208;5.488;2023-04-24T05:00:17;14.80;99.90
25440;DHT22;13365;52.208;5.488;2023-04-24T05:02:43;14.70;99.90
25440;DHT22;13365;52.208;5.488;2023-04-24T05:05:09;14.90;99.90
25440;DHT22;13365;52.208;5.488;2023-04-24T05:07:35;14.70;99.90
25440;DHT22;13365;52.208;5.488;2023-04-24T05:10:01;14.60;99.90
25440;DHT22;13365;52.208;5.488;2023-04-24T05:12:26;14.80;99.90
25440;DHT22;13365;52.208;5.488;2023-04-24T05:14:52;15.00;99.90
25440;DHT22;13365;52.208;5.488;2023-04-24T05:17:18;15.00;99.90
25440;DHT22;13365;52.208;5.488;2023-04-24T05:19:43;14.80;99.90
25440;DHT22;13365;52.208;5.488;2023-04-24T05:22:09;14.90;99.90
25440;DHT22;13365;52.208;5.488;2023-04-24T05:24:36;14.70;99.90
25440;DHT22;13365;52.208;5.488;2023-04-24T05:27:02;14.70;99.90
25440;DHT22;13365;52.208;5.488;2023-04-24T05:29:28;14.90;99.90
25440;DHT22;13365;52.208;5.488;2023-04-24T05:31:56;15.10;99.90
25440;DHT22;13365;52.208;5.488;2023-04-24T05:34:21;15.30;99.90
25440;DHT22;13365;52.208;5.488;2023-04-24T05:36:47;15.20;99.90
25440;DHT22;13365;52.208;5.488;2023-04-24T05:39:14;15.30;99.90
25440;DHT22;13365;52.208;5.488;2023-04-24T05:41:40;15.00;99.90
25440;DHT22;13365;52.208;5.488;2023-04-24T05:44:05;14.80;99.90
25440;DHT22;13365;52.208;5.488;2023-04-24T05:46:31;14.70;99.90
25440;DHT22;13365;52.208;5.488;2023-04-24T05:48:56;14.40;99.90
25440;DHT22;13365;52.208;5.488;2023-04-24T05:51:23;14.50;99.90
25440;DHT22;13365;52.208;5.488;2023-04-24T05:53:48;14.20;99.90
25440;DHT22;13365;52.208;5.488;2023-04-24T05:56:14;14.30;99.90
25440;DHT22;13365;52.208;5.488;2023-04-24T05:58:39;14.00;99.90
25440;DHT22;13365;52.208;5.488;2023-04-24T06:01:06;13.70;99.90
25440;DHT22;13365;52.208;5.488;2023-04-24T06:03:31;13.60;99.90
25440;DHT22;13365;52.208;5.488;2023-04-24T06:05:57;13.40;99.90
25440;DHT22;13365;52.208;5.488;2023-04-24T06:08:22;13.30;99.90
25440;DHT22;13365;52.208;5.488;2023-04-24T06:10:48;12.80;99.90
25440;DHT22;13365;52.208;5.488;2023-04-24T06:13:13;12.90;99.90
25440;DHT22;13365;52.208;5.488;2023-04-24T06:15:39;12.70;99.90
25440;DHT22;13365;52.208;5.488;2023-04-24T06:18:04;12.70;99.90
25440;DHT22;13365;52.208;5.488;2023-04-24T06:20:30;12.80;99.90
25440;DHT22;13365;52.208;5.488;2023-04-24T06:22:55;12.70;99.90
25440;DHT22;13365;52.208;5.488;2023-04-24T06:25:21;12.60;99.90
25440;DHT22;13365;52.208;5.488;2023-04-24T06:27:46;12.40;99.90
25440;DHT22;13365;52.208;5.488;2023-04-24T06:30:12;12.60;99.90
25440;DHT22;13365;52.208;5.488;2023-04-24T06:32:39;12.60;99.90
25440;DHT22;13365;52.208;5.488;2023-04-24T06:35:05;12.60;99.90
25440;DHT22;13365;52.208;5.488;2023-04-24T06:37:32;12.60;99.90
25440;DHT22;13365;52.208;5.488;2023-04-24T06:39:58;12.60;99.90
25440;DHT22;13365;52.208;5.488;2023-04-24T06:42:23;12.60;99.90
25440;DHT22;13365;52.208;5.488;2023-04-24T06:44:50;12.40;99.90
25440;DHT22;13365;52.208;5.488;2023-04-24T06:47:15;12.30;99.90
25440;DHT22;13365;52.208;5.488;2023-04-24T06:49:41;12.20;99.90
25440;DHT22;13365;52.208;5.488;2023-04-24T06:52:07;12.30;99.90
25440;DHT22;13365;52.208;5.488;2023-04-24T06:54:33;12.30;99.90
25440;DHT22;13365;52.208;5.488;2023-04-24T06:56:59;12.20;99.90
25440;DHT22;13365;52.208;5.488;2023-04-24T06:59:26;12.10;99.90
25440;DHT22;13365;52.208;5.488;2023-04-24T07:01:52;12.10;99.90
25440;DHT22;13365;52.208;5.488;2023-04-24T07:04:18;12.20;99.90
25440;DHT22;13365;52.208;5.488;2023-04-24T07:06:45;12.00;99.90
25440;DHT22;13365;52.208;5.488;2023-04-24T07:09:11;12.10;99.90
25440;DHT22;13365;52.208;5.488;2023-04-24T07:11:38;12.10;99.90
25440;DHT22;13365;52.208;5.488;2023-04-24T07:14:06;12.30;99.90
25440;DHT22;13365;52.208;5.488;2023-04-24T07:16:31;12.10;99.90
25440;DHT22;13365;52.208;5.488;2023-04-24T07:18:57;11.80;99.90
25440;DHT22;13365;52.208;5.488;2023-04-24T07:21:22;11.70;99.90
25440;DHT22;13365;52.208;5.488;2023-04-24T07:23:48;11.80;99.90
25440;DHT22;13365;52.208;5.488;2023-04-24T07:26:13;11.60;99.90
25440;DHT22;13365;52.208;5.488;2023-04-24T07:28:40;11.50;99.90
25440;DHT22;13365;52.208;5.488;2023-04-24T07:31:06;11.60;99.90
25440;DHT22;13365;52.208;5.488;2023-04-24T07:33:31;11.70;99.90
25440;DHT22;13365;52.208;5.488;2023-04-24T07:35:58;11.40;99.90
25440;DHT22;13365;52.208;5.488;2023-04-24T07:38:25;11.60;99.90
25440;DHT22;13365;52.208;5.488;2023-04-24T07:40:51;11.60;99.90
25440;DHT22;13365;52.208;5.488;2023-04-24T07:43:17;11.50;99.90
25440;DHT22;13365;52.208;5.488;2023-04-24T07:45:43;11.30;99.90
25440;DHT22;13365;52.208;5.488;2023-04-24T07:48:09;11.30;99.90
25440;DHT22;13365;52.208;5.488;2023-04-24T07:50:36;11.20;99.90
25440;DHT22;13365;52.208;5.488;2023-04-24T07:53:02;11.30;99.90
25440;DHT22;13365;52.208;5.488;2023-04-24T07:55:28;11.40;99.90
25440;DHT22;13365;52.208;5.488;2023-04-24T07:57:53;11.40;99.90
25440;DHT22;13365;52.208;5.488;2023-04-24T08:00:19;11.40;99.90
25440;DHT22;13365;52.208;5.488;2023-04-24T08:02:45;11.30;99.90
25440;DHT22;13365;52.208;5.488;2023-04-24T08:05:11;11.30;99.90
25440;DHT22;13365;52.208;5.488;2023-04-24T08:07:37;11.40;99.90
25440;DHT22;13365;52.208;5.488;2023-04-24T08:10:03;11.20;99.90
25440;DHT22;13365;52.208;5.488;2023-04-24T08:12:29;11.10;99.90
25440;DHT22;13365;52.208;5.488;2023-04-24T08:14:55;11.30;99.90
25440;DHT22;13365;52.208;5.488;2023-04-24T08:17:20;11.40;99.90
25440;DHT22;13365;52.208;5.488;2023-04-24T08:19:46;11.60;99.90
25440;DHT22;13365;52.208;5.488;2023-04-24T08:22:14;11.70;99.90
25440;DHT22;13365;52.208;5.488;2023-04-24T08:24:40;11.80;99.90
25440;DHT22;13365;52.208;5.488;2023-04-24T08:27:06;11.50;99.90
25440;DHT22;13365;52.208;5.488;2023-04-24T08:29:33;11.40;99.90
25440;DHT22;13365;52.208;5.488;2023-04-24T08:31:58;11.20;99.90
25440;DHT22;13365;52.208;5.488;2023-04-24T08:34:24;11.00;99.90
25440;DHT22;13365;52.208;5.488;2023-04-24T08:36:50;11.10;99.90
25440;DHT22;13365;52.208;5.488;2023-04-24T08:39:17;11.10;99.90
25440;DHT22;13365;52.208;5.488;2023-04-24T08:41:43;11.10;99.90
25440;DHT22;13365;52.208;5.488;2023-04-24T08:44:11;11.10;99.90
25440;DHT22;13365;52.208;5.488;2023-04-24T08:46:37;10.90;99.90
25440;DHT22;13365;52.208;5.488;2023-04-24T08:49:03;11.00;99.90
25440;DHT22;13365;52.208;5.488;2023-04-24T08:51:31;10.90;99.90
25440;DHT22;13365;52.208;5.488;2023-04-24T08:53:57;11.00;99.90
25440;DHT22;13365;52.208;5.488;2023-04-24T08:56:23;11.20;99.90
25440;DHT22;13365;52.208;5.488;2023-04-24T08:58:51;11.10;99.90
25440;DHT22;13365;52.208;5.488;2023-04-24T09:01:18;11.00;99.90
25440;DHT22;13365;52.208;5.488;2023-04-24T09:03:45;11.10;99.90
25440;DHT22;13365;52.208;5.488;2023-04-24T09:06:11;11.00;99.90
25440;DHT22;13365;52.208;5.488;2023-04-24T09:08:39;11.00;99.90
25440;DHT22;13365;52.208;5.488;2023-04-24T09:11:06;11.10;99.90
25440;DHT22;13365;52.208;5.488;2023-04-24T09:13:32;11.00;99.90
25440;DHT22;13365;52.208;5.488;2023-04-24T09:15:58;10.90;99.90
25440;DHT22;13365;52.208;5.488;2023-04-24T09:18:26;10.70;99.90
25440;DHT22;13365;52.208;5.488;2023-04-24T09:21:07;10.90;99.90
25440;DHT22;13365;52.208;5.488;2023-04-24T09:23:33;10.90;99.90
25440;DHT22;13365;52.208;5.488;2023-04-24T09:26:00;11.20;99.90
25440;DHT22;13365;52.208;5.488;2023-04-24T09:28:31;11.30;99.90
25440;DHT22;13365;52.208;5.488;2023-04-24T09:31:08;11.40;99.90
25440;DHT22;13365;52.208;5.488;2023-04-24T09:33:35;11.60;99.90
25440;DHT22;13365;52.208;5.488;2023-04-24T09:36:01;11.90;99.90
25440;DHT22;13365;52.208;5.488;2023-04-24T09:38:34;12.10;99.90
25440;DHT22;13365;52.208;5.488;2023-04-24T09:41:06;12.00;99.90
25440;DHT22;13365;52.208;5.488;2023-04-24T09:43:32;11.80;99.90
25440;DHT22;13365;52.208;5.488;2023-04-24T09:46:00;11.70;99.90
25440;DHT22;13365;52.208;5.488;2023-04-24T09:48:38;11.50;99.90
25440;DHT22;13365;52.208;5.488;2023-04-24T09:51:05;11.50;99.90
25440;DHT22;13365;52.208;5.488;2023-04-24T09:53:36;11.30;99.90
25440;DHT22;13365;52.208;5.488;2023-04-24T09:56:09;11.30;99.90
25440;DHT22;13365;52.208;5.488;2023-04-24T09:58:36;11.20;99.90
25440;DHT22;13365;52.208;5.488;2023-04-24T10:01:01;11.10;99.90
25440;DHT22;13365;52.208;5.488;2023-04-24T10:03:30;11.50;99.90
25440;DHT22;13365;52.208;5.488;2023-04-24T10:05:58;11.70;99.90
25440;DHT22;13365;52.208;5.488;2023-04-24T10:08:25;11.90;99.90
25440;DHT22;13365;52.208;5.488;2023-04-24T10:10:52;12.10;99.90
25440;DHT22;13365;52.208;5.488;2023-04-24T10:13:18;12.40;99.90
25440;DHT22;13365;52.208;5.488;2023-04-24T10:15:44;12.00;99.90
25440;DHT22;13365;52.208;5.488;2023-04-24T10:18:10;12.10;99.90
25440;DHT22;13365;52.208;5.488;2023-04-24T10:20:38;12.10;99.90
25440;DHT22;13365;52.208;5.488;2023-04-24T10:23:04;12.20;99.90
25440;DHT22;13365;52.208;5.488;2023-04-24T10:25:33;12.20;99.90
25440;DHT22;13365;52.208;5.488;2023-04-24T10:28:00;12.40;99.90
25440;DHT22;13365;52.208;5.488;2023-04-24T10:30:28;12.50;99.90
25440;DHT22;13365;52.208;5.488;2023-04-24T10:32:54;12.60;99.90
25440;DHT22;13365;52.208;5.488;2023-04-24T10:35:20;12.40;99.90
25440;DHT22;13365;52.208;5.488;2023-04-24T10:38:09;12.50;99.90
25440;DHT22;13365;52.208;5.488;2023-04-24T10:40:35;12.40;99.90
25440;DHT22;13365;52.208;5.488;2023-04-24T10:43:05;12.50;99.90
25440;DHT22;13365;52.208;5.488;2023-04-24T10:45:34;12.70;99.90
25440;DHT22;13365;52.208;5.488;2023-04-24T10:48:09;12.80;99.90
25440;DHT22;13365;52.208;5.488;2023-04-24T10:50:47;12.60;99.90
25440;DHT22;13365;52.208;5.488;2023-04-24T10:53:23;12.60;99.90
25440;DHT22;13365;52.208;5.488;2023-04-24T10:56:08;12.50;99.90
25440;DHT22;13365;52.208;5.488;2023-04-24T10:58:41;12.40;99.90
25440;DHT22;13365;52.208;5.488;2023-04-24T11:01:23;12.30;99.90
25440;DHT22;13365;52.208;5.488;2023-04-24T11:03:54;12.20;99.90
25440;DHT22;13365;52.208;5.488;2023-04-24T11:06:29;12.30;99.90
25440;DHT22;13365;52.208;5.488;2023-04-24T11:09:02;12.00;99.90
25440;DHT22;13365;52.208;5.488;2023-04-24T11:11:29;11.90;99.90
25440;DHT22;13365;52.208;5.488;2023-04-24T11:24:26;11.80;99.90
25440;DHT22;13365;52.208;5.488;2023-04-24T11:27:05;11.90;99.90
25440;DHT22;13365;52.208;5.488;2023-04-24T11:32:42;12.30;99.90
25440;DHT22;13365;52.208;5.488;2023-04-24T11:35:18;12.20;99.90
25440;DHT22;13365;52.208;5.488;2023-04-24T11:37:46;12.40;99.90
25440;DHT22;13365;52.208;5.488;2023-04-24T11:40:13;12.70;99.90
25440;DHT22;13365;52.208;5.488;2023-04-24T11:42:43;12.80;99.90
25440;DHT22;13365;52.208;5.488;2023-04-24T11:45:09;13.00;99.90
25440;DHT22;13365;52.208;5.488;2023-04-24T11:47:36;13.00;99.90
25440;DHT22;13365;52.208;5.488;2023-04-24T11:50:03;12.90;99.90
25440;DHT22;13365;52.208;5.488;2023-04-24T11:52:30;12.60;99.90
25440;DHT22;13365;52.208;5.488;2023-04-24T11:54:56;12.40;99.90
25440;DHT22;13365;52.208;5.488;2023-04-24T11:57:23;12.50;99.90
25440;DHT22;13365;52.208;5.488;2023-04-24T11:59:51;12.70;99.90
25440;DHT22;13365;52.208;5.488;2023-04-24T12:02:21;12.70;99.90
25440;DHT22;13365;52.208;5.488;2023-04-24T12:04:47;12.90;99.90
25440;DHT22;13365;52.208;5.488;2023-04-24T12:07:12;13.00;99.90
25440;DHT22;13365;52.208;5.488;2023-04-24T12:09:41;12.80;99.90
25440;DHT22;13365;52.208;5.488;2023-04-24T12:12:08;12.80;99.90
25440;DHT22;13365;52.208;5.488;2023-04-24T12:14:42;13.00;99.90
25440;DHT22;13365;52.208;5.488;2023-04-24T12:17:08;13.10;99.90
25440;DHT22;13365;52.208;5.488;2023-04-24T12:19:33;13.10;99.90
25440;DHT22;13365;52.208;5.488;2023-04-24T12:22:00;13.20;99.20
25440;DHT22;13365;52.208;5.488;2023-04-24T12:24:26;13.10;98.80
25440;DHT22;13365;52.208;5.488;2023-04-24T12:26:51;13.20;98.80
25440;DHT22;13365;52.208;5.488;2023-04-24T12:29:23;13.20;99.00
25440;DHT22;13365;52.208;5.488;2023-04-24T12:31:50;13.30;98.50
25440;DHT22;13365;52.208;5.488;2023-04-24T12:34:20;13.40;97.60
25440;DHT22;13365;52.208;5.488;2023-04-24T12:36:46;13.30;97.60
25440;DHT22;13365;52.208;5.488;2023-04-24T12:39:18;13.40;97.80
25440;DHT22;13365;52.208;5.488;2023-04-24T12:41:57;13.40;98.30
25440;DHT22;13365;52.208;5.488;2023-04-24T12:44:33;13.40;97.70
25440;DHT22;13365;52.208;5.488;2023-04-24T12:47:03;13.60;96.60
25440;DHT22;13365;52.208;5.488;2023-04-24T12:49:31;13.90;97.40
25440;DHT22;13365;52.208;5.488;2023-04-24T12:51:57;13.70;95.80
25440;DHT22;13365;52.208;5.488;2023-04-24T12:54:23;13.20;95.30
25440;DHT22;13365;52.208;5.488;2023-04-24T12:56:48;12.80;96.90
25440;DHT22;13365;52.208;5.488;2023-04-24T12:59:14;12.70;98.90
25440;DHT22;13365;52.208;5.488;2023-04-24T13:01:40;12.90;99.90
25440;DHT22;13365;52.208;5.488;2023-04-24T13:04:06;12.50;99.90
25440;DHT22;13365;52.208;5.488;2023-04-24T13:06:31;12.20;99.90
25440;DHT22;13365;52.208;5.488;2023-04-24T13:08:57;12.00;99.90
25440;DHT22;13365;52.208;5.488;2023-04-24T13:11:23;11.80;99.90
25440;DHT22;13365;52.208;5.488;2023-04-24T13:13:49;11.70;99.90
25440;DHT22;13365;52.208;5.488;2023-04-24T13:16:15;11.60;99.90
25440;DHT22;13365;52.208;5.488;2023-04-24T13:18:41;11.20;99.90
25440;DHT22;13365;52.208;5.488;2023-04-24T13:21:06;11.10;99.90
25440;DHT22;13365;52.208;5.488;2023-04-24T13:23:32;11.30;99.90
25440;DHT22;13365;52.208;5.488;2023-04-24T13:25:57;11.50;99.90
25440;DHT22;13365;52.208;5.488;2023-04-24T13:28:24;11.70;99.90
25440;DHT22;13365;52.208;5.488;2023-04-24T13:30:50;11.80;99.90
25440;DHT22;13365;52.208;5.488;2023-04-24T13:33:16;11.80;99.90
25440;DHT22;13365;52.208;5.488;2023-04-24T13:35:42;11.90;99.90
25440;DHT22;13365;52.208;5.488;2023-04-24T13:38:07;11.80;99.90
25440;DHT22;13365;52.208;5.488;2023-04-24T13:40:33;11.70;99.90
25440;DHT22;13365;52.208;5.488;2023-04-24T13:42:59;12.10;99.90
25440;DHT22;13365;52.208;5.488;2023-04-24T13:45:24;12.10;99.90
25440;DHT22;13365;52.208;5.488;2023-04-24T13:47:50;12.30;99.90
25440;DHT22;13365;52.208;5.488;2023-04-24T13:50:15;12.20;99.90
25440;DHT22;13365;52.208;5.488;2023-04-24T13:52:41;12.10;99.90
25440;DHT22;13365;52.208;5.488;2023-04-24T13:55:07;12.20;99.90
25440;DHT22;13365;52.208;5.488;2023-04-24T13:57:33;12.30;99.90
25440;DHT22;13365;52.208;5.488;2023-04-24T13:59:58;12.30;99.90
25440;DHT22;13365;52.208;5.488;2023-04-24T14:02:29;12.40;99.90
25440;DHT22;13365;52.208;5.488;2023-04-24T14:04:55;12.60;99.90
25440;DHT22;13365;52.208;5.488;2023-04-24T14:07:20;12.70;99.60
25440;DHT22;13365;52.208;5.488;2023-04-24T14:09:46;13.00;99.00
25440;DHT22;13365;52.208;5.488;2023-04-24T14:12:11;13.10;99.90
25440;DHT22;13365;52.208;5.488;2023-04-24T14:14:38;13.20;97.30
25440;DHT22;13365;52.208;5.488;2023-04-24T14:17:03;13.40;97.40
25440;DHT22;13365;52.208;5.488;2023-04-24T14:19:29;13.20;96.80
25440;DHT22;13365;52.208;5.488;2023-04-24T14:21:54;13.20;98.20
25440;DHT22;13365;52.208;5.488;2023-04-24T14:24:22;12.90;98.70
25440;DHT22;13365;52.208;5.488;2023-04-24T14:26:49;12.80;99.50
25440;DHT22;13365;52.208;5.488;2023-04-24T14:29:14;12.70;99.20
25440;DHT22;13365;52.208;5.488;2023-04-24T14:31:40;12.70;99.40
25440;DHT22;13365;52.208;5.488;2023-04-24T14:34:06;12.80;99.90
25440;DHT22;13365;52.208;5.488;2023-04-24T14:36:32;12.70;99.00
25440;DHT22;13365;52.208;5.488;2023-04-24T14:38:57;13.00;99.30
25440;DHT22;13365;52.208;5.488;2023-04-24T14:41:23;13.10;97.60
25440;DHT22;13365;52.208;5.488;2023-04-24T14:43:48;13.30;97.80
25440;DHT22;13365;52.208;5.488;2023-04-24T14:46:14;13.10;97.20
25440;DHT22;13365;52.208;5.488;2023-04-24T14:48:40;12.90;96.40
25440;DHT22;13365;52.208;5.488;2023-04-24T14:51:05;12.80;97.00
25440;DHT22;13365;52.208;5.488;2023-04-24T14:53:31;12.50;95.70
25440;DHT22;13365;52.208;5.488;2023-04-24T14:55:56;12.30;96.30
25440;DHT22;13365;52.208;5.488;2023-04-24T14:58:22;12.30;97.30
25440;DHT22;13365;52.208;5.488;2023-04-24T15:00:47;12.40;96.70
25440;DHT22;13365;52.208;5.488;2023-04-24T15:03:17;12.50;96.30
25440;DHT22;13365;52.208;5.488;2023-04-24T15:05:43;12.70;94.30
25440;DHT22;13365;52.208;5.488;2023-04-24T15:08:08;13.00;94.60
25440;DHT22;13365;52.208;5.488;2023-04-24T15:10:34;13.50;94.60
25440;DHT22;13365;52.208;5.488;2023-04-24T15:13:00;13.90;92.90
25440;DHT22;13365;52.208;5.488;2023-04-24T15:15:27;13.90;92.50
25440;DHT22;13365;52.208;5.488;2023-04-24T15:17:52;13.80;91.90
25440;DHT22;13365;52.208;5.488;2023-04-24T15:20:18;13.60;92.70
25440;DHT22;13365;52.208;5.488;2023-04-24T15:22:44;13.40;93.70
25440;DHT22;13365;52.208;5.488;2023-04-24T15:25:10;13.10;94.00
25440;DHT22;13365;52.208;5.488;2023-04-24T15:27:40;13.00;94.80
25440;DHT22;13365;52.208;5.488;2023-04-24T15:30:07;12.80;95.80
25440;DHT22;13365;52.208;5.488;2023-04-24T15:32:33;13.10;95.80
25440;DHT22;13365;52.208;5.488;2023-04-24T15:34:58;13.40;95.40
25440;DHT22;13365;52.208;5.488;2023-04-24T15:37:24;13.80;94.70
25440;DHT22;13365;52.208;5.488;2023-04-24T15:39:50;14.10;93.90